createdAt,value
2023-03-20T00:00:36.110Z,5
2023-03-20T00:02:16.395Z,4.5
2023-03-20T00:03:56.727Z,4.5
2023-03-20T00:05:37.267Z,4.5
2023-03-20T00:07:17.300Z,4.5
2023-03-20T00:08:57.580Z,4.5
2023-03-20T00:10:37.856Z,4.5
2023-03-20T00:12:18.189Z,3.6
2023-03-20T00:13:58.470Z,3.6
2023-03-20T00:15:38.747Z,3.6
2023-03-20T00:17:19.074Z,3.6
2023-03-20T00:18:59.379Z,3.6
2023-03-20T00:20:39.643Z,3.6
2023-03-20T00:22:19.978Z,4.1
2023-03-20T00:24:00.268Z,4.1
2023-03-20T00:25:40.712Z,4.1
2023-03-20T00:27:21.144Z,4.1
2023-03-20T00:29:01.577Z,4.1
2023-03-20T00:30:42.031Z,4.1
2023-03-20T00:32:22.426Z,4.1
2023-03-20T00:34:02.867Z,4.1
2023-03-20T00:35:43.385Z,4.1
2023-03-20T00:37:23.709Z,4.1
2023-03-20T00:39:04.149Z,4.1
2023-03-20T00:40:44.508Z,4.1
2023-03-20T00:42:24.849Z,5.6
2023-03-20T00:44:05.243Z,5.6
2023-03-20T00:45:45.619Z,5.6
2023-03-20T00:47:26.050Z,5.6
2023-03-20T00:49:06.512Z,5.6
2023-03-20T00:50:46.960Z,5.6
2023-03-20T00:52:27.350Z,4.5
2023-03-20T00:54:07.645Z,4.5
2023-03-20T00:55:47.954Z,4.5
2023-03-20T00:57:28.293Z,4.5
2023-03-20T00:59:08.557Z,4.5
2023-03-20T01:00:48.878Z,4.5
2023-03-20T01:02:29.409Z,7.1
2023-03-20T01:04:09.518Z,7.1
2023-03-20T01:05:49.767Z,7.1
2023-03-20T01:07:30.141Z,7.1
2023-03-20T01:09:10.435Z,7.1
2023-03-20T01:10:50.732Z,7.1
2023-03-20T01:12:31.024Z,6.8
2023-03-20T01:14:11.420Z,6.8
2023-03-20T01:15:51.790Z,6.8
2023-03-20T01:17:32.225Z,6.8
2023-03-20T01:19:12.611Z,6.8
2023-03-20T01:20:53.102Z,6.8
2023-03-20T01:22:33.502Z,6.9
2023-03-20T01:24:13.908Z,6.9
2023-03-20T01:25:54.386Z,6.9
2023-03-20T01:27:34.876Z,6.9
2023-03-20T01:29:15.287Z,6.9
2023-03-20T01:30:55.698Z,6.9
2023-03-20T01:32:36.157Z,8.1
2023-03-20T01:34:16.696Z,8.1
2023-03-20T01:35:57.036Z,8.1
2023-03-20T01:37:37.435Z,8.1
2023-03-20T01:39:17.727Z,8.1
2023-03-20T01:40:58.104Z,8.1
2023-03-20T01:42:38.539Z,8.8
2023-03-20T01:44:18.907Z,8.8
2023-03-20T01:45:59.334Z,8.8
2023-03-20T01:47:39.669Z,8.8
2023-03-20T01:49:20.100Z,8.8
2023-03-20T01:51:00.538Z,8.8
2023-03-20T01:52:40.865Z,9.55
2023-03-20T01:54:21.249Z,9.55
2023-03-20T01:56:01.758Z,9.55
2023-03-20T01:57:42.163Z,9.55
2023-03-20T01:59:22.656Z,9.55
2023-03-20T02:01:03.113Z,9.55
2023-03-20T02:02:43.426Z,19.3
2023-03-20T02:04:23.943Z,19.3
2023-03-20T02:06:04.224Z,19.3
2023-03-20T02:07:44.559Z,19.3
2023-03-20T02:09:24.994Z,19.3
2023-03-20T02:11:05.352Z,19.3
2023-03-20T02:12:45.746Z,13.1
2023-03-20T02:14:26.056Z,13.1
2023-03-20T02:16:06.374Z,13.1
2023-03-20T02:17:46.643Z,13.1
2023-03-20T02:19:26.932Z,13.1
2023-03-20T02:21:07.234Z,13.1
2023-03-20T02:22:47.691Z,20.1
2023-03-20T02:24:28.043Z,20.1
2023-03-20T02:26:08.459Z,20.1
2023-03-20T02:27:48.801Z,20.1
2023-03-20T02:29:29.213Z,20.1
2023-03-20T02:31:09.685Z,20.1
2023-03-20T02:32:50.071Z,16.9
2023-03-20T02:34:30.399Z,16.9
2023-03-20T02:36:10.966Z,16.9
2023-03-20T02:37:51.288Z,16.9
2023-03-20T02:39:31.646Z,16.9
2023-03-20T02:41:12.104Z,16.9
2023-03-20T02:42:52.489Z,16.6
2023-03-20T02:44:32.895Z,16.6
2023-03-20T02:46:13.307Z,16.6
2023-03-20T02:47:53.548Z,16.6
2023-03-20T02:49:33.973Z,16.6
2023-03-20T02:51:14.335Z,16.6
2023-03-20T02:52:54.717Z,16.8
2023-03-20T02:54:35.117Z,16.8
2023-03-20T02:56:15.524Z,16.8
2023-03-20T02:57:55.941Z,16.8
2023-03-20T02:59:36.323Z,16.8
2023-03-20T03:01:16.674Z,16.8
2023-03-20T03:02:56.945Z,17.7
2023-03-20T03:04:37.270Z,17.7
2023-03-20T03:06:17.617Z,17.7
2023-03-20T03:07:58.091Z,17.7
2023-03-20T03:09:38.450Z,17.7
2023-03-20T03:11:18.848Z,17.7
2023-03-20T03:12:59.220Z,15.1
2023-03-20T03:14:39.608Z,15.1
2023-03-20T03:16:19.933Z,15.1
2023-03-20T03:18:00.332Z,15.1
2023-03-20T03:19:40.688Z,15.1
2023-03-20T03:21:21.175Z,15.1
2023-03-20T03:23:01.667Z,15.1
2023-03-20T03:24:42.165Z,11.4
2023-03-20T03:26:22.449Z,11.4
2023-03-20T03:28:02.816Z,11.4
2023-03-20T03:29:43.228Z,11.4
2023-03-20T03:31:23.639Z,11.4
2023-03-20T03:33:04.077Z,11.4
2023-03-20T03:34:44.405Z,12.2
2023-03-20T03:36:24.850Z,12.2
2023-03-20T03:38:05.201Z,12.2
2023-03-20T03:39:45.504Z,12.2
2023-03-20T03:41:25.791Z,12.2
2023-03-20T03:43:06.114Z,12.2
2023-03-20T03:44:46.407Z,11.9
2023-03-20T03:46:26.749Z,11.9
2023-03-20T03:48:06.976Z,11.9
2023-03-20T03:49:47.253Z,11.9
2023-03-20T03:51:27.559Z,11.9
2023-03-20T03:53:07.865Z,11.9
2023-03-20T03:54:48.196Z,14
2023-03-20T03:56:28.462Z,14
2023-03-20T03:58:08.782Z,14
2023-03-20T03:59:49.091Z,14
2023-03-20T04:01:29.488Z,14
2023-03-20T04:03:09.704Z,14
2023-03-20T04:04:50.238Z,12.4
2023-03-20T04:06:30.602Z,12.4
2023-03-20T04:08:11.041Z,12.4
2023-03-20T04:09:51.409Z,12.4
2023-03-20T04:11:31.784Z,12.4
2023-03-20T04:13:12.142Z,12.4
2023-03-20T04:14:52.550Z,13.5
2023-03-20T04:16:33.004Z,13.5
2023-03-20T04:18:13.332Z,13.5
2023-03-20T04:19:53.726Z,13.5
2023-03-20T04:21:34.185Z,13.5
2023-03-20T04:23:14.583Z,13.5
2023-03-20T04:24:55.019Z,15.4
2023-03-20T04:26:35.358Z,15.4
2023-03-20T04:28:15.793Z,15.4
2023-03-20T04:29:56.174Z,15.4
2023-03-20T04:31:36.610Z,15.4
2023-03-20T04:33:16.953Z,15.4
2023-03-20T04:34:57.329Z,17.5
2023-03-20T04:36:37.732Z,17.5
2023-03-20T04:38:18.013Z,17.5
2023-03-20T04:39:58.313Z,17.5
2023-03-20T04:41:38.613Z,17.5
2023-03-20T04:43:18.887Z,17.5
2023-03-20T04:44:59.208Z,22.1
2023-03-20T04:46:39.502Z,22.1
2023-03-20T04:48:19.820Z,22.1
2023-03-20T04:50:00.095Z,22.1
2023-03-20T04:51:40.425Z,22.1
2023-03-20T04:53:20.716Z,22.1
2023-03-20T04:55:01.163Z,28.1
2023-03-20T04:56:41.510Z,28.1
2023-03-20T04:58:21.936Z,28.1
2023-03-20T05:00:02.362Z,28.1
2023-03-20T05:01:42.748Z,28.1
2023-03-20T05:03:24.131Z,28.1
2023-03-20T05:05:03.515Z,10.8
2023-03-20T05:06:43.896Z,10.8
2023-03-20T05:08:24.377Z,10.8
2023-03-20T05:10:04.764Z,10.8
2023-03-20T05:11:45.136Z,10.8
2023-03-20T05:13:25.600Z,10.8
2023-03-20T05:15:06.033Z,17
2023-03-20T05:16:46.578Z,17
2023-03-20T05:18:26.908Z,17
2023-03-20T05:20:07.309Z,17
2023-03-20T05:21:47.692Z,17
2023-03-20T05:23:28.072Z,17
2023-03-20T05:25:08.405Z,13.9
2023-03-20T05:26:48.692Z,13.9
2023-03-20T05:28:29.031Z,13.9
2023-03-20T05:30:09.319Z,13.9
2023-03-20T05:31:49.611Z,13.9
2023-03-20T05:33:29.920Z,13.9
2023-03-20T05:35:10.245Z,18.2
2023-03-20T05:36:50.702Z,18.2
2023-03-20T05:38:31.041Z,18.2
2023-03-20T05:40:11.441Z,18.2
2023-03-20T05:41:51.757Z,18.2
2023-03-20T05:43:32.130Z,18.2
2023-03-20T05:45:12.577Z,20.3
2023-03-20T05:46:52.955Z,20.3
2023-03-20T05:48:33.355Z,20.3
2023-03-20T05:50:13.781Z,20.3
2023-03-20T05:51:54.146Z,20.3
2023-03-20T05:53:34.560Z,20.3
2023-03-20T05:55:14.904Z,18.5
2023-03-20T05:56:57.231Z,18.5
2023-03-20T05:58:35.634Z,18.5
2023-03-20T06:00:16.015Z,18.5
2023-03-20T06:01:56.409Z,18.5
2023-03-20T06:03:36.802Z,18.5
2023-03-20T06:05:17.137Z,17.1
2023-03-20T06:06:57.565Z,17.1
2023-03-20T06:08:37.983Z,17.1
2023-03-20T06:10:18.346Z,17.1
2023-03-20T06:11:58.718Z,17.1
2023-03-20T06:13:39.109Z,17.1
2023-03-20T06:15:19.410Z,29
2023-03-20T06:16:59.723Z,29
2023-03-20T06:18:40.009Z,29
2023-03-20T06:20:20.388Z,29
2023-03-20T06:22:00.883Z,29
2023-03-20T06:23:41.216Z,29
2023-03-20T06:25:21.552Z,25.1
2023-03-20T06:27:02.003Z,25.1
2023-03-20T06:28:42.401Z,25.1
2023-03-20T06:30:22.792Z,25.1
2023-03-20T06:32:03.217Z,25.1
2023-03-20T06:33:43.665Z,25.1
2023-03-20T06:35:24.143Z,35.9
2023-03-20T06:37:04.498Z,35.9
2023-03-20T06:38:44.924Z,35.9
2023-03-20T06:40:25.273Z,35.9
2023-03-20T06:42:05.702Z,35.9
2023-03-20T06:43:46.095Z,35.9
2023-03-20T06:45:26.535Z,21.2
2023-03-20T06:47:06.916Z,21.2
2023-03-20T06:48:47.331Z,21.2
2023-03-20T06:50:27.682Z,21.2
2023-03-20T06:52:08.048Z,21.2
2023-03-20T06:53:48.486Z,21.2
2023-03-20T06:55:28.731Z,29.1
2023-03-20T06:57:09.106Z,29.1
2023-03-20T06:58:49.572Z,29.1
2023-03-20T07:00:29.912Z,29.1
2023-03-20T07:02:10.465Z,29.1
2023-03-20T07:03:50.842Z,29.1
2023-03-20T07:05:31.242Z,24
2023-03-20T07:07:11.654Z,24
2023-03-20T07:08:52.091Z,24
2023-03-20T07:10:32.537Z,24
2023-03-20T07:12:12.981Z,24
2023-03-20T07:13:53.398Z,24
2023-03-20T07:15:33.937Z,23.4
2023-03-20T07:17:14.089Z,23.4
2023-03-20T07:18:54.400Z,23.4
2023-03-20T07:20:34.793Z,23.4
2023-03-20T07:22:15.178Z,23.4
2023-03-20T07:23:55.617Z,23.4
2023-03-20T07:25:42.905Z,28.4
2023-03-20T07:27:16.341Z,28.4
2023-03-20T07:28:56.710Z,28.4
2023-03-20T07:30:37.125Z,28.4
2023-03-20T07:32:17.487Z,28.4
2023-03-20T07:33:57.904Z,28.4
2023-03-20T07:35:38.552Z,23.9
2023-03-20T07:37:18.803Z,23.9
2023-03-20T07:38:59.167Z,23.9
2023-03-20T07:40:39.645Z,23.9
2023-03-20T07:42:20.020Z,23.9
2023-03-20T07:44:00.485Z,23.9
2023-03-20T07:45:40.928Z,34.4
2023-03-20T07:47:21.346Z,34.4
2023-03-20T07:49:01.770Z,34.4
2023-03-20T07:50:42.127Z,34.4
2023-03-20T07:52:22.581Z,34.4
2023-03-20T07:54:03.010Z,34.4
2023-03-20T07:55:43.421Z,30
2023-03-20T07:57:23.840Z,30
2023-03-20T07:59:04.219Z,30
2023-03-20T08:00:44.714Z,30
2023-03-20T08:02:25.084Z,30
2023-03-20T08:04:05.724Z,30
2023-03-20T08:05:47.606Z,28.1
2023-03-20T08:07:26.351Z,28.1
2023-03-20T08:09:06.766Z,28.1
2023-03-20T08:10:47.181Z,28.1
2023-03-20T08:12:27.560Z,28.1
2023-03-20T08:14:07.971Z,28.1
2023-03-20T08:15:48.354Z,39.1
2023-03-20T08:17:28.893Z,39.1
2023-03-20T08:19:09.189Z,39.1
2023-03-20T08:20:49.483Z,39.1
2023-03-20T08:22:29.914Z,39.1
2023-03-20T08:24:10.347Z,39.1
2023-03-20T08:25:50.686Z,30.4
2023-03-20T08:27:31.190Z,30.4
2023-03-20T08:29:11.573Z,30.4
2023-03-20T08:30:52.067Z,30.4
2023-03-20T08:32:32.408Z,30.4
2023-03-20T08:34:12.858Z,30.4
2023-03-20T08:35:53.282Z,22.3
2023-03-20T08:37:33.722Z,22.3
2023-03-20T08:39:14.196Z,22.3
2023-03-20T08:40:54.638Z,22.3
2023-03-20T08:42:35.066Z,22.3
2023-03-20T08:44:15.508Z,22.3
2023-03-20T08:45:56.091Z,27.4
2023-03-20T08:47:36.334Z,27.4
2023-03-20T08:49:16.744Z,27.4
2023-03-20T08:50:57.188Z,27.4
2023-03-20T08:52:37.551Z,27.4
2023-03-20T08:54:17.932Z,27.4
2023-03-20T08:55:58.299Z,15.3
2023-03-20T08:57:38.816Z,15.3
2023-03-20T08:59:19.257Z,15.3
2023-03-20T09:00:59.650Z,15.3
2023-03-20T09:02:40.229Z,15.3
2023-03-20T09:04:20.557Z,15.3
2023-03-20T09:06:00.868Z,12.8
2023-03-20T09:07:41.371Z,12.8
2023-03-20T09:09:21.831Z,12.8
2023-03-20T09:11:02.215Z,12.8
2023-03-20T09:12:42.561Z,12.8
2023-03-20T09:14:22.995Z,12.8
2023-03-20T09:16:03.372Z,12.2
2023-03-20T09:17:43.577Z,12.2
2023-03-20T09:19:23.853Z,12.2
2023-03-20T09:21:04.155Z,12.2
2023-03-20T09:22:44.454Z,12.2
2023-03-20T09:24:24.731Z,12.2
2023-03-20T09:26:04.964Z,13
2023-03-20T09:27:45.308Z,13
2023-03-20T09:29:25.630Z,13
2023-03-20T09:31:06.009Z,13
2023-03-20T09:32:46.297Z,13
2023-03-20T09:34:26.657Z,13
2023-03-20T09:36:07.113Z,13
2023-03-20T09:37:47.534Z,10.2
2023-03-20T09:39:28.006Z,10.2
2023-03-20T09:41:08.478Z,10.2
2023-03-20T09:42:48.834Z,10.2
2023-03-20T09:44:29.240Z,10.2
2023-03-20T09:46:09.782Z,10.2
2023-03-20T09:47:50.078Z,13.7
2023-03-20T09:49:30.465Z,13.7
2023-03-20T09:51:10.856Z,13.7
2023-03-20T09:52:51.238Z,13.7
2023-03-20T09:54:43.409Z,13.7
2023-03-20T09:56:12.078Z,13.7
2023-03-20T09:57:52.467Z,10.1
2023-03-20T09:59:32.779Z,10.1
2023-03-20T10:01:13.075Z,10.1
2023-03-20T10:02:53.390Z,10.1
2023-03-20T10:04:33.785Z,10.1
2023-03-20T10:06:14.193Z,9.2
2023-03-20T10:07:54.600Z,9.2
2023-03-20T10:09:35.013Z,9.2
2023-03-20T10:11:15.390Z,9.2
2023-03-20T10:12:55.813Z,9.2
2023-03-20T10:14:36.278Z,9.2
2023-03-20T10:16:16.680Z,9.2
2023-03-20T10:17:57.014Z,10
2023-03-20T10:19:37.440Z,10
2023-03-20T10:21:17.863Z,10
2023-03-20T10:22:58.263Z,10
2023-03-20T10:24:38.666Z,10
2023-03-20T10:26:19.127Z,10
2023-03-20T10:27:59.562Z,10.9
2023-03-20T10:29:39.962Z,10.9
2023-03-20T10:31:20.449Z,10.9
2023-03-20T10:33:00.755Z,10.9
2023-03-20T10:34:41.022Z,10.9
2023-03-20T10:36:21.354Z,10.3
2023-03-20T10:38:01.694Z,10.3
2023-03-20T10:39:42.106Z,10.3
2023-03-20T10:41:22.479Z,10.3
2023-03-20T10:43:02.904Z,10.3
2023-03-20T10:44:43.506Z,10.3
2023-03-20T10:46:24.050Z,10.3
2023-03-20T10:48:04.597Z,11.9
2023-03-20T10:49:45.030Z,11.9
2023-03-20T10:51:25.450Z,11.9
2023-03-20T10:53:05.826Z,11.9
2023-03-20T10:54:46.211Z,11.9
2023-03-20T10:56:26.703Z,11.9
2023-03-20T10:58:07.088Z,9.5
2023-03-20T10:59:47.441Z,9.5
2023-03-20T11:01:28.018Z,9.5
2023-03-20T11:03:08.319Z,9.5
2023-03-20T11:04:48.724Z,9.5
2023-03-20T11:06:29.132Z,9.5
2023-03-20T11:08:09.605Z,10.9
2023-03-20T11:09:50.031Z,10.9
2023-03-20T11:11:30.388Z,10.9
2023-03-20T11:13:10.794Z,10.9
2023-03-20T11:14:51.179Z,10.9
2023-03-20T11:16:31.682Z,10.9
2023-03-20T11:18:12.026Z,8.1
2023-03-20T11:19:52.432Z,8.1
2023-03-20T11:21:32.836Z,8.1
2023-03-20T11:23:13.314Z,8.1
2023-03-20T11:24:53.730Z,8.1
2023-03-20T11:26:34.141Z,8.1
2023-03-20T11:28:14.583Z,6.3
2023-03-20T11:29:54.851Z,6.3
2023-03-20T11:31:35.230Z,6.3
2023-03-20T11:33:15.519Z,6.3
2023-03-20T11:34:55.847Z,6.3
2023-03-20T11:36:36.054Z,6.3
2023-03-20T11:38:16.345Z,11.2
2023-03-20T11:39:56.625Z,11.2
2023-03-20T11:41:39.175Z,11.2
2023-03-20T11:43:17.453Z,11.2
2023-03-20T11:44:57.917Z,11.2
2023-03-20T11:46:38.299Z,11.2
2023-03-20T11:48:18.702Z,8.25
2023-03-20T11:49:59.146Z,8.25
2023-03-20T11:51:39.572Z,8.25
2023-03-20T11:53:19.997Z,8.25
2023-03-20T11:55:00.497Z,8.25
2023-03-20T11:56:40.891Z,8.25
2023-03-20T11:58:21.251Z,5.9
2023-03-20T12:00:01.577Z,5.9
2023-03-20T12:01:41.952Z,5.9
2023-03-20T12:03:22.435Z,5.9
2023-03-20T12:05:02.783Z,5.9
2023-03-20T12:06:43.207Z,5.9
2023-03-20T12:08:23.602Z,8.05
2023-03-20T12:10:04.036Z,8.05
2023-03-20T12:11:44.337Z,8.05
2023-03-20T12:13:24.770Z,8.05
2023-03-20T12:15:05.135Z,8.05
2023-03-20T12:16:45.509Z,8.05
2023-03-20T12:18:26.015Z,7.95
2023-03-20T12:20:06.435Z,7.95
2023-03-20T12:21:48.405Z,7.95
2023-03-20T12:23:27.330Z,7.95
2023-03-20T12:25:07.764Z,7.95
2023-03-20T12:26:48.133Z,7.95
2023-03-20T12:28:28.546Z,6.15
2023-03-20T12:30:08.930Z,6.15
2023-03-20T12:31:49.345Z,6.15
2023-03-20T12:33:29.702Z,6.15
2023-03-20T12:35:10.110Z,6.15
2023-03-20T12:36:50.512Z,6.15
2023-03-20T12:38:31.002Z,7.8
2023-03-20T12:40:11.444Z,7.8
2023-03-20T12:41:51.756Z,7.8
2023-03-20T12:43:32.049Z,7.8
2023-03-20T12:45:12.383Z,7.8
2023-03-20T12:46:52.788Z,7.8
2023-03-20T12:48:33.129Z,5
2023-03-20T12:50:13.577Z,5
2023-03-20T12:51:53.935Z,5
2023-03-20T12:53:34.395Z,5
2023-03-20T12:55:14.731Z,5
2023-03-20T12:56:55.192Z,5
2023-03-20T12:58:35.644Z,7.7
2023-03-20T13:00:16.090Z,7.7
2023-03-20T13:01:56.475Z,7.7
2023-03-20T13:03:36.877Z,7.7
2023-03-20T13:05:17.219Z,7.7
2023-03-20T13:06:57.599Z,7.7
2023-03-20T13:08:37.990Z,5.8
2023-03-20T13:10:18.323Z,5.8
2023-03-20T13:11:58.843Z,5.8
2023-03-20T13:13:39.145Z,5.8
2023-03-20T13:15:21.582Z,5.8
2023-03-20T13:16:59.932Z,5.8
2023-03-20T13:18:40.281Z,5.3
2023-03-20T13:20:20.602Z,5.3
2023-03-20T13:22:00.873Z,5.3
2023-03-20T13:23:41.314Z,5.3
2023-03-20T13:25:21.784Z,5.3
2023-03-20T13:27:02.149Z,5.3
2023-03-20T13:28:42.566Z,6.1
2023-03-20T13:30:23.064Z,6.1
2023-03-20T13:32:03.453Z,6.1
2023-03-20T13:33:43.982Z,6.1
2023-03-20T13:35:24.386Z,6.1
2023-03-20T13:37:22.030Z,6.1
2023-03-20T13:38:45.309Z,6.5
2023-03-20T13:40:25.756Z,6.5
2023-03-20T13:42:06.182Z,6.5
2023-03-20T13:43:46.582Z,6.5
2023-03-20T13:45:26.998Z,6.5
2023-03-20T13:47:07.278Z,6.5
2023-03-20T13:48:47.508Z,5.2
2023-03-20T13:50:27.822Z,5.2
2023-03-20T13:52:08.125Z,5.2
2023-03-20T13:53:48.428Z,5.2
2023-03-20T13:55:28.837Z,5.2
2023-03-20T13:57:09.312Z,5.2
2023-03-20T13:58:49.722Z,5.95
2023-03-20T14:00:30.156Z,5.95
2023-03-20T14:02:10.647Z,5.95
2023-03-20T14:03:51.013Z,5.95
2023-03-20T14:05:31.387Z,5.95
2023-03-20T14:07:11.870Z,5.95
2023-03-20T14:08:52.293Z,5
2023-03-20T14:10:32.753Z,5
2023-03-20T14:12:13.187Z,5
2023-03-20T14:13:53.624Z,5
2023-03-20T14:15:33.969Z,5
2023-03-20T14:17:14.333Z,5
2023-03-20T14:18:54.780Z,9
2023-03-20T14:20:35.652Z,9
2023-03-20T14:22:15.686Z,9
2023-03-20T14:23:56.107Z,9
2023-03-20T14:25:38.701Z,9
2023-03-20T14:27:16.975Z,9
2023-03-20T14:28:57.428Z,7.8
2023-03-20T14:30:38.120Z,7.8
2023-03-20T14:32:18.281Z,7.8
2023-03-20T14:33:58.754Z,7.8
2023-03-20T14:35:39.198Z,7.8
2023-03-20T14:37:19.518Z,7.8
2023-03-20T14:38:59.876Z,10.55
2023-03-20T14:40:40.291Z,10.55
2023-03-20T14:42:22.546Z,10.55
2023-03-20T14:44:01.105Z,10.55
2023-03-20T14:45:41.519Z,10.55
2023-03-20T14:47:21.965Z,10.55
2023-03-20T14:49:02.299Z,6.9
2023-03-20T14:50:42.761Z,6.9
2023-03-20T14:52:23.104Z,6.9
2023-03-20T14:54:03.487Z,6.9
2023-03-20T14:55:43.846Z,6.9
2023-03-20T14:57:24.315Z,6.9
2023-03-20T14:59:04.711Z,7.8
2023-03-20T15:00:45.114Z,7.8
2023-03-20T15:02:25.518Z,7.8
2023-03-20T15:04:05.878Z,7.8
2023-03-20T15:05:46.307Z,7.8
2023-03-20T15:07:26.779Z,7.8
2023-03-20T15:09:07.098Z,11.2
2023-03-20T15:10:47.614Z,11.2
2023-03-20T15:12:28.037Z,11.2
2023-03-20T15:14:08.389Z,11.2
2023-03-20T15:15:48.749Z,11.2
2023-03-20T15:17:29.131Z,11.2
2023-03-20T15:19:09.516Z,5.6
2023-03-20T15:20:49.914Z,5.6
2023-03-20T15:22:30.316Z,5.6
2023-03-20T15:24:10.581Z,5.6
2023-03-20T15:25:50.938Z,5.6
2023-03-20T15:27:31.185Z,5.6
2023-03-20T15:29:11.521Z,7.6
2023-03-20T15:30:51.960Z,7.6
2023-03-20T15:32:32.386Z,7.6
2023-03-20T15:34:12.743Z,7.6
2023-03-20T15:35:53.382Z,7.6
2023-03-20T15:37:33.600Z,7.6
2023-03-20T15:39:14.062Z,8.7
2023-03-20T15:40:55.009Z,8.7
2023-03-20T15:42:34.847Z,8.7
2023-03-20T15:44:15.270Z,8.7
2023-03-20T15:46:14.214Z,8.7
2023-03-20T15:47:36.214Z,8.7
2023-03-20T15:49:16.554Z,7.3
2023-03-20T15:50:56.931Z,7.3
2023-03-20T15:52:37.290Z,7.3
2023-03-20T15:54:17.730Z,7.3
2023-03-20T15:56:14.903Z,7.3
2023-03-20T15:57:38.639Z,7.3
2023-03-20T15:59:19.058Z,11.7
2023-03-20T16:01:02.492Z,11.7
2023-03-20T16:02:39.884Z,11.7
2023-03-20T16:04:20.358Z,11.7
2023-03-20T16:06:00.806Z,11.7
2023-03-20T16:07:44.311Z,11.7
2023-03-20T16:09:21.687Z,5.5
2023-03-20T16:11:02.139Z,5.5
2023-03-20T16:12:42.547Z,5.5
2023-03-20T16:14:22.926Z,5.5
2023-03-20T16:16:03.456Z,5.5
2023-03-20T16:17:43.779Z,5.5
2023-03-20T16:19:24.227Z,4.7
2023-03-20T16:21:04.634Z,4.7
2023-03-20T16:22:45.102Z,4.7
2023-03-20T16:24:25.556Z,4.7
2023-03-20T16:26:05.951Z,4.7
2023-03-20T16:27:46.362Z,4.7
2023-03-20T16:29:26.771Z,7.4
2023-03-20T16:31:09.127Z,7.4
2023-03-20T16:32:47.659Z,7.4
2023-03-20T16:34:27.998Z,7.4
2023-03-20T16:36:08.512Z,7.4
2023-03-20T16:37:48.838Z,7.4
2023-03-20T16:39:32.342Z,8.1
2023-03-20T16:41:09.839Z,8.1
2023-03-20T16:42:50.105Z,8.1
2023-03-20T16:44:30.488Z,8.1
2023-03-20T16:46:10.838Z,8.1
2023-03-20T16:47:54.189Z,8.1
2023-03-20T16:49:31.534Z,6.1
2023-03-20T16:51:11.974Z,6.1
2023-03-20T16:52:52.337Z,6.1
2023-03-20T16:54:32.651Z,6.1
2023-03-20T16:56:12.979Z,6.1
2023-03-20T16:57:53.202Z,6.1
2023-03-20T16:59:33.538Z,10.9
2023-03-20T17:01:13.957Z,10.9
2023-03-20T17:02:54.240Z,10.9
2023-03-20T17:04:34.739Z,10.9
2023-03-20T17:06:15.067Z,10.9
2023-03-20T17:07:55.480Z,10.9
2023-03-20T17:09:36.011Z,10
2023-03-20T17:11:16.272Z,10
2023-03-20T17:12:56.656Z,10
2023-03-20T17:14:37.005Z,10
2023-03-20T17:16:17.441Z,10
2023-03-20T17:17:57.860Z,10
2023-03-20T17:19:38.243Z,10.2
2023-03-20T17:21:18.696Z,10.2
2023-03-20T17:23:00.115Z,10.2
2023-03-20T17:24:39.433Z,10.2
2023-03-20T17:26:22.933Z,10.2
2023-03-20T17:28:00.273Z,10.2
2023-03-20T17:29:40.722Z,10.3
2023-03-20T17:31:21.182Z,10.3
2023-03-20T17:33:01.452Z,10.3
2023-03-20T17:34:41.829Z,10.3
2023-03-20T17:36:22.225Z,10.3
2023-03-20T17:38:02.576Z,10.3
2023-03-20T17:39:43.022Z,9.7
2023-03-20T17:41:23.343Z,9.7
2023-03-20T17:43:03.837Z,9.7
2023-03-20T17:44:44.128Z,9.7
2023-03-20T17:46:24.509Z,9.7
2023-03-20T17:48:04.903Z,9.7
2023-03-20T17:49:45.277Z,7
2023-03-20T17:51:25.618Z,7
2023-03-20T17:53:06.076Z,7
2023-03-20T17:54:46.376Z,7
2023-03-20T17:56:29.281Z,7
2023-03-20T17:58:07.030Z,7
2023-03-20T17:59:47.348Z,6
2023-03-20T18:01:29.803Z,6
2023-03-20T18:03:08.172Z,6
2023-03-20T18:04:48.497Z,6
2023-03-20T18:06:28.845Z,6
2023-03-20T18:08:12.348Z,6
2023-03-20T18:09:49.677Z,6
2023-03-20T18:11:30.132Z,14.8
2023-03-20T18:13:10.437Z,14.8
2023-03-20T18:14:50.765Z,14.8
2023-03-20T18:16:31.159Z,14.8
2023-03-20T18:18:11.619Z,14.8
2023-03-20T18:19:51.880Z,14.8
2023-03-20T18:21:32.276Z,5.3
2023-03-20T18:23:12.734Z,5.3
2023-03-20T18:24:53.130Z,5.3
2023-03-20T18:26:33.491Z,5.3
2023-03-20T18:28:13.935Z,5.3
2023-03-20T18:29:54.363Z,6.2
2023-03-20T18:31:34.829Z,6.2
2023-03-20T18:33:15.264Z,6.2
2023-03-20T18:34:58.630Z,6.2
2023-03-20T18:36:35.928Z,6.2
2023-03-20T18:38:16.354Z,6.2
2023-03-20T18:39:56.757Z,6.2
2023-03-20T18:41:37.203Z,3.7
2023-03-20T18:43:17.534Z,3.7
2023-03-20T18:44:57.938Z,3.7
2023-03-20T18:46:38.360Z,3.7
2023-03-20T18:48:21.752Z,3.7
2023-03-20T18:49:59.095Z,3.7
2023-03-20T18:51:39.591Z,3.6
2023-03-20T18:53:19.983Z,3.6
2023-03-20T18:55:00.385Z,3.6
2023-03-20T18:56:43.901Z,3.6
2023-03-20T18:58:21.152Z,3.6
2023-03-20T19:00:01.530Z,3.6
2023-03-20T19:01:41.904Z,3.5
2023-03-20T19:03:22.216Z,3.5
2023-03-20T19:05:02.582Z,3.5
2023-03-20T19:06:42.898Z,3.5
2023-03-20T19:08:23.235Z,3.5
2023-03-20T19:10:03.634Z,3.5
2023-03-20T19:11:43.942Z,3.4
2023-03-20T19:13:24.312Z,3.4
2023-03-20T19:15:04.696Z,3.4
2023-03-20T19:16:45.156Z,3.4
2023-03-20T19:18:25.539Z,3.4
2023-03-20T19:20:05.913Z,3.4
2023-03-20T19:21:46.358Z,3
2023-03-20T19:23:26.776Z,3
2023-03-20T19:25:07.148Z,3
2023-03-20T19:26:47.475Z,3
2023-03-20T19:28:38.835Z,3
2023-03-20T19:30:08.291Z,3
2023-03-20T19:31:48.696Z,2.9
2023-03-20T19:33:29.080Z,2.9
2023-03-20T19:36:49.827Z,2.9
2023-03-20T19:38:30.162Z,2.9
2023-03-20T19:40:10.579Z,2.9
2023-03-20T19:41:51.053Z,3.7
2023-03-20T19:43:32.382Z,3.7
2023-03-20T19:45:11.855Z,3.7
2023-03-20T19:46:52.258Z,3.7
2023-03-20T19:48:47.080Z,3.7
2023-03-20T19:50:12.982Z,3.7
2023-03-20T19:51:53.351Z,2.1
2023-03-20T19:53:33.764Z,2.1
2023-03-20T19:55:14.093Z,2.1
2023-03-20T19:56:54.463Z,2.1
2023-03-20T19:58:34.953Z,2.1
2023-03-20T20:01:55.705Z,2.7
2023-03-20T20:03:35.799Z,2.7
2023-03-20T20:05:16.125Z,2.7
2023-03-20T20:07:26.296Z,2.7
2023-03-20T20:08:46.953Z,2.7
2023-03-20T20:10:17.038Z,2.7
2023-03-20T20:11:57.331Z,3.9
2023-03-20T20:13:47.094Z,3.9
2023-03-20T20:15:17.924Z,3.9
2023-03-20T20:16:58.262Z,3.9
2023-03-20T20:18:38.500Z,3.9
2023-03-20T20:20:20.603Z,3.9
2023-03-20T20:22:24.789Z,2.7
2023-03-20T20:23:39.610Z,2.7
2023-03-20T20:25:19.990Z,2.7
2023-03-20T20:27:15.900Z,2.7
2023-03-20T20:28:40.904Z,2.7
2023-03-20T20:30:21.435Z,2.7
2023-03-20T20:32:04.910Z,3.4
2023-03-20T20:33:42.816Z,3.4
2023-03-20T20:35:43.913Z,3.4
2023-03-20T20:38:50.860Z,3.4
2023-03-20T20:40:23.838Z,3.4
2023-03-20T20:42:04.163Z,3.1
2023-03-20T20:45:24.963Z,3.1
2023-03-20T20:47:05.399Z,3.1
2023-03-20T20:48:45.799Z,3.1
2023-03-20T20:50:26.179Z,3.1
2023-03-20T20:52:06.557Z,4.4
2023-03-20T20:53:46.830Z,4.4
2023-03-20T20:55:27.566Z,4.4
2023-03-20T20:57:10.482Z,4.4
2023-03-20T20:58:47.789Z,4.4
2023-03-20T21:00:48.551Z,4.4
2023-03-20T21:02:08.514Z,3.4
2023-03-20T21:03:48.918Z,3.4
2023-03-20T21:05:29.305Z,3.4
2023-03-20T21:07:11.281Z,3.4
2023-03-20T21:08:50.159Z,3.4
2023-03-20T21:10:30.463Z,3.4
2023-03-20T21:12:22.647Z,3.9
2023-03-20T21:13:51.334Z,3.9
2023-03-20T21:15:31.734Z,3.9
2023-03-20T21:17:12.159Z,3.9
2023-03-20T21:18:52.670Z,3.9
2023-03-20T21:20:33.044Z,3.9
2023-03-20T21:22:13.409Z,5.7
2023-03-20T21:23:53.771Z,5.7
2023-03-20T21:25:40.701Z,5.7
2023-03-20T21:27:14.568Z,5.7
2023-03-20T21:28:54.918Z,5.7
2023-03-20T21:30:35.343Z,5.7
2023-03-20T21:32:15.781Z,1.6
2023-03-20T21:33:56.114Z,1.6
2023-03-20T21:35:36.746Z,1.6
2023-03-20T21:38:15.734Z,1.6
2023-03-20T21:39:12.321Z,1.6
2023-03-20T21:40:37.280Z,1.6
2023-03-20T21:42:17.723Z,3.8
2023-03-20T21:44:01.148Z,3.8
2023-03-20T21:46:21.036Z,3.8
2023-03-20T21:48:09.226Z,3.8
2023-03-20T21:49:43.722Z,3.8
2023-03-20T21:51:05.129Z,3.8
2023-03-20T21:58:09.850Z,3.5
2023-03-20T22:02:27.210Z,2.2
2023-03-20T22:06:21.079Z,2.2
2023-03-20T22:07:59.650Z,2.2
2023-03-20T22:10:03.395Z,2.2
2023-03-20T22:16:33.181Z,2.8
2023-03-20T22:23:16.299Z,2.8
2023-03-20T22:34:53.609Z,2.2
2023-03-20T22:39:47.977Z,2.2
2023-03-20T22:41:47.313Z,2.2
2023-03-20T22:46:09.936Z,5.6
2023-03-20T22:47:32.915Z,5.6
2023-03-20T22:49:13.311Z,5.6
2023-03-20T22:50:53.694Z,5.6
2023-03-20T22:52:48.017Z,5.6
2023-03-20T22:54:14.483Z,2
2023-03-20T22:55:54.788Z,2
2023-03-20T22:57:45.593Z,2
2023-03-20T22:59:15.383Z,2
2023-03-20T23:00:55.857Z,0
2023-03-20T23:02:36.076Z,0
2023-03-20T23:04:16.481Z,0
2023-03-20T23:05:56.847Z,0
2023-03-20T23:07:37.281Z,0
2023-03-20T23:09:17.659Z,0
2023-03-20T23:10:58.083Z,2.8
2023-03-20T23:12:38.439Z,2.8
2023-03-20T23:14:21.563Z,2.8
2023-03-20T23:15:59.208Z,2.8
2023-03-20T23:17:39.621Z,2.8
2023-03-20T23:19:20.064Z,2.8
2023-03-20T23:21:00.400Z,3.7
2023-03-20T23:22:40.815Z,3.7
2023-03-20T23:24:21.197Z,3.7
2023-03-20T23:26:01.597Z,3.7
2023-03-20T23:27:41.922Z,3.7
2023-03-20T23:29:22.395Z,3.7
2023-03-20T23:31:10.049Z,4.4
2023-03-20T23:32:43.233Z,4.4